FZAA/FIH METAR and TAF weather

Enter ICAO airport designator
Station Type Date Time Source
FZAA METAR 2020/07/04 01:00 UTC NOAA

FZAA 040100Z 00000KT 6000 NSC 24/20 Q1013 NOSIG


Station Type Date Time Source
FZAA Decoded METAR 2020/07/04 01:00 UTC NOAA

Kinshasa / N'Djili, Congo, Democratic Republic of the (FZAA) 04-23S 015-26E 312M
Jul 03, 2020 - 09:00 PM EDT / 2020.07.04 0100 UTC
Wind: Calm:0
Visibility: 3 mile(s):0
Temperature: 75 F (24 C)
Dew Point: 68 F (20 C)
Relative Humidity: 78%
Pressure (altimeter): 29.91 in. Hg (1013 hPa)
ob: FZAA 040100Z 00000KT 6000 NSC 24/20 Q1013 NOSIG
cycle: 1

Station Type Date Time Source
FZAA TAF 2020/07/03 12:57 UTC NOAA

TAF TAF FZAA 031100Z 0312/0418 26006KT 6000 BKN018
BECMG 0319/0321 4000 BR FEW016 PROB30 0405/0408 1000 BR BKN012
BECMG 0409/0411 6000 NSW

Example: see airport list